Time;durP1;ratioP1;P1;durP2;ratioP2;P2;SDS_P1;SDS_P2;PMS_P1;PMS_P2;Temp;Humidity;BMP_temperature;BMP_pressure;BME280_temperature;BME280_humidity;BME280_pressure;Samples;Min_cycle;Max_cycle;Signal;HPM_P1;HPM_P2
2022/01/29 00:01:40;;;;;;;14.98;9.23;;;15.40;70.70;;;;;;4183566;28;20434;-62
2022/01/29 00:04:03;;;;;;;19.80;8.88;;;15.40;70.70;;;;;;4193779;28;20771;-62
2022/01/29 00:06:25;;;;;;;17.23;8.10;;;15.40;70.70;;;;;;4186896;28;20450;-62
2022/01/29 00:08:47;;;;;;;20.50;9.43;;;15.40;70.90;;;;;;4177101;28;20068;-62
2022/01/29 00:11:12;;;;;;;15.13;9.00;;;15.40;71.00;;;;;;4177199;28;20071;-61
2022/01/29 00:13:34;;;;;;;23.63;9.13;;;15.40;70.80;;;;;;4186962;28;20059;-61
2022/01/29 00:15:56;;;;;;;23.48;9.15;;;15.40;70.70;;;;;;4188077;28;20056;-62
2022/01/29 00:18:20;;;;;;;17.35;8.80;;;15.40;70.70;;;;;;4176207;28;20040;-61
2022/01/29 00:20:42;;;;;;;16.23;8.15;;;15.50;70.80;;;;;;4176954;28;20045;-61
2022/01/29 00:23:04;;;;;;;15.88;8.32;;;15.50;70.70;;;;;;4176549;28;20542;-61
2022/01/29 00:25:26;;;;;;;20.15;9.05;;;15.50;70.60;;;;;;4176740;28;20500;-61
2022/01/29 00:27:48;;;;;;;15.13;8.13;;;15.50;70.50;;;;;;4176173;28;20109;-61
2022/01/29 00:30:16;;;;;;;16.00;7.88;;;15.50;70.40;;;;;;4193404;28;20048;-61
2022/01/29 00:32:38;;;;;;;17.90;7.35;;;15.60;70.40;;;;;;4192850;28;20058;-61
2022/01/29 00:35:02;;;;;;;17.80;7.75;;;15.50;70.20;;;;;;4192958;28;20079;-61
2022/01/29 00:37:24;;;;;;;16.15;8.25;;;15.50;70.40;;;;;;4168477;28;21388;-61
2022/01/29 00:39:46;;;;;;;15.27;8.02;;;15.60;70.40;;;;;;4179785;28;20055;-61
2022/01/29 00:42:09;;;;;;;19.65;8.65;;;15.60;70.30;;;;;;4193090;28;20048;-62
2022/01/29 00:44:37;;;;;;;11.30;6.82;;;15.60;70.20;;;;;;4192742;28;20056;-62
2022/01/29 00:46:58;;;;;;;11.55;6.60;;;15.60;70.20;;;;;;4180856;28;20052;-62
2022/01/29 00:49:21;;;;;;;14.32;7.75;;;15.60;70.20;;;;;;4181833;28;20113;-62
2022/01/29 00:51:44;;;;;;;11.88;7.00;;;15.60;71.20;;;;;;4192663;28;20052;-61
2022/01/29 00:54:07;;;;;;;13.90;6.97;;;15.60;70.10;;;;;;4192962;28;20399;-61
2022/01/29 00:56:28;;;;;;;14.27;6.95;;;15.70;69.90;;;;;;4178786;28;20122;-61
2022/01/29 00:58:51;;;;;;;13.07;6.93;;;15.70;69.60;;;;;;4176134;28;20106;-61
2022/01/29 01:01:13;;;;;;;11.73;6.00;;;15.70;70.40;;;;;;4175249;28;20053;-60
2022/01/29 01:03:35;;;;;;;12.10;6.60;;;15.80;69.50;;;;;;4190052;28;20086;-61
2022/01/29 01:05:57;;;;;;;11.02;6.97;;;15.70;69.40;;;;;;4184831;28;20242;-60
2022/01/29 01:08:20;;;;;;;9.90;6.63;;;15.80;69.40;;;;;;4175586;28;20052;-61
2022/01/29 01:10:42;;;;;;;13.07;7.57;;;15.70;69.60;;;;;;4175917;28;20080;-61
2022/01/29 01:13:05;;;;;;;10.45;6.60;;;15.70;69.70;;;;;;4175708;28;20064;-60
2022/01/29 01:15:27;;;;;;;12.75;6.57;;;15.70;69.80;;;;;;4182352;28;20454;-61
2022/01/29 01:17:49;;;;;;;10.82;6.88;;;15.70;70.00;;;;;;4175988;28;20472;-62
2022/01/29 01:20:12;;;;;;;12.05;6.95;;;15.70;70.90;;;;;;4175710;28;20067;-61
2022/01/29 01:22:34;;;;;;;12.27;6.65;;;15.80;69.80;;;;;;4176510;28;20049;-61
2022/01/29 01:24:57;;;;;;;13.63;6.90;;;15.80;69.30;;;;;;4176269;28;20044;-61
2022/01/29 01:27:19;;;;;;;8.63;5.22;;;15.90;69.10;;;;;;4182659;28;20485;-62
2022/01/29 01:29:41;;;;;;;12.73;6.45;;;15.90;69.00;;;;;;4174332;28;20558;-61
2022/01/29 01:32:04;;;;;;;17.90;7.65;;;15.90;68.90;;;;;;4176152;28;20051;-61
2022/01/29 01:34:31;;;;;;;13.98;7.22;;;16.00;68.80;;;;;;4183674;28;20082;-61
2022/01/29 01:36:57;;;;;;;12.35;6.70;;;16.00;68.90;;;;;;4175562;28;20053;-61
2022/01/29 01:39:24;;;;;;;11.95;7.32;;;15.90;68.90;;;;;;4175943;28;20045;-61
2022/01/29 01:41:55;;;;;;;15.25;8.05;;;15.90;68.90;;;;;;4176162;28;20470;-61
2022/01/29 01:44:17;;;;;;;15.52;7.70;;;15.90;69.00;;;;;;4175515;28;20477;-61
2022/01/29 01:46:39;;;;;;;13.88;7.28;;;15.80;69.00;;;;;;4172621;28;20567;-62
2022/01/29 01:49:01;;;;;;;19.60;7.28;;;15.80;69.30;;;;;;4177860;28;20139;-61
2022/01/29 01:51:24;;;;;;;15.82;7.72;;;15.80;69.30;;;;;;4175918;28;20126;-61
2022/01/29 01:53:46;;;;;;;19.30;9.10;;;15.90;69.40;;;;;;4192551;28;20052;-61
2022/01/29 01:56:08;;;;;;;18.17;7.93;;;15.80;69.40;;;;;;4192407;28;20086;-61
2022/01/29 01:58:32;;;;;;;17.25;8.82;;;15.80;69.50;;;;;;4176381;28;20064;-61
2022/01/29 02:00:54;;;;;;;19.55;9.15;;;15.80;69.70;;;;;;4175694;28;20152;-61
2022/01/29 02:03:17;;;;;;;17.42;8.02;;;15.80;69.70;;;;;;4175941;28;20541;-63
2022/01/29 02:05:39;;;;;;;24.33;8.77;;;15.80;69.60;;;;;;4176061;28;20056;-61
2022/01/29 02:08:03;;;;;;;23.90;8.88;;;15.90;69.40;;;;;;4175491;28;20048;-61
2022/01/29 02:10:27;;;;;;;23.10;10.00;;;15.90;69.30;;;;;;4189214;28;20504;-62
2022/01/29 02:12:50;;;;;;;18.50;8.88;;;15.90;69.20;;;;;;4190510;28;20080;-61
2022/01/29 02:15:14;;;;;;;20.58;9.68;;;16.00;69.20;;;;;;4192460;28;20055;-61
2022/01/29 02:17:37;;;;;;;17.45;7.65;;;16.00;69.10;;;;;;4192508;28;20146;-61
2022/01/29 02:19:59;;;;;;;19.80;9.55;;;16.00;69.10;;;;;;4192008;28;20051;-61
2022/01/29 02:22:22;;;;;;;20.00;9.32;;;16.10;68.90;;;;;;4176640;28;20048;-62
2022/01/29 02:24:44;;;;;;;18.25;8.80;;;16.10;68.80;;;;;;4175579;28;20499;-61
2022/01/29 02:27:06;;;;;;;20.23;8.88;;;16.10;68.70;;;;;;4186812;28;20424;-61
2022/01/29 02:29:29;;;;;;;21.83;9.07;;;16.10;69.60;;;;;;4183810;28;20433;-61
2022/01/29 02:31:53;;;;;;;17.55;9.32;;;16.10;68.90;;;;;;4175507;28;20110;-61
2022/01/29 02:34:15;;;;;;;26.52;9.45;;;16.00;69.00;;;;;;4175641;28;20048;-61
2022/01/29 02:36:37;;;;;;;21.13;9.70;;;16.10;69.00;;;;;;4177471;28;20578;-61
2022/01/29 02:39:01;;;;;;;17.63;9.48;;;16.00;69.00;;;;;;4188028;28;20392;-61
2022/01/29 02:41:24;;;;;;;16.75;8.10;;;16.00;69.00;;;;;;4177675;28;20102;-61
2022/01/29 02:43:47;;;;;;;16.38;8.10;;;16.00;69.10;;;;;;4194487;28;20392;-61
2022/01/29 02:46:20;;;;;;;18.90;8.73;;;16.00;69.20;;;;;;4194955;28;20050;-61
2022/01/29 02:48:43;;;;;;;15.82;8.10;;;16.00;69.30;;;;;;4190799;28;20059;-61
2022/01/29 02:51:05;;;;;;;19.13;9.63;;;15.90;69.50;;;;;;4180167;28;20114;-61
2022/01/29 02:53:27;;;;;;;15.75;8.20;;;16.00;69.60;;;;;;4195013;28;20102;-61
2022/01/29 02:55:51;;;;;;;14.68;7.57;;;16.00;69.50;;;;;;4195023;28;20391;-61
2022/01/29 02:58:12;;;;;;;14.50;8.00;;;16.10;69.00;;;;;;4195071;28;20070;-61
2022/01/29 03:00:35;;;;;;;14.18;7.65;;;16.30;68.70;;;;;;4176504;28;20040;-61
2022/01/29 03:02:58;;;;;;;17.55;9.18;;;16.30;69.30;;;;;;4177790;28;20500;-62
2022/01/29 03:05:20;;;;;;;18.48;8.25;;;16.30;68.20;;;;;;4177957;28;20135;-63
2022/01/29 03:07:43;;;;;;;20.90;8.40;;;16.30;68.10;;;;;;4177805;28;20044;-61
2022/01/29 03:10:06;;;;;;;18.67;8.30;;;16.30;68.20;;;;;;4161528;28;20130;-63
2022/01/29 03:12:29;;;;;;;18.25;8.82;;;16.30;68.20;;;;;;4161870;28;20049;-65
2022/01/29 03:14:51;;;;;;;19.70;8.50;;;16.30;68.20;;;;;;4162375;28;20193;-61
2022/01/29 03:17:13;;;;;;;17.63;8.52;;;16.30;68.20;;;;;;4161781;28;20485;-61
2022/01/29 03:19:35;;;;;;;18.08;8.65;;;16.30;68.20;;;;;;4182981;28;20110;-61
2022/01/29 03:21:57;;;;;;;14.52;7.30;;;16.30;68.20;;;;;;4182914;28;20447;-62
2022/01/29 03:24:20;;;;;;;16.48;7.78;;;16.30;68.40;;;;;;4177218;28;20049;-63
2022/01/29 03:26:42;;;;;;;15.15;7.57;;;16.20;68.50;;;;;;4187552;28;20044;-61
2022/01/29 03:29:06;;;;;;;16.33;8.50;;;16.20;68.70;;;;;;4194052;28;20050;-61
2022/01/29 03:31:29;;;;;;;13.70;5.65;;;16.20;69.00;;;;;;4186274;28;20528;-60
2022/01/29 03:33:50;;;;;;;16.55;7.47;;;16.20;69.10;;;;;;4177286;28;20567;-61
2022/01/29 03:36:12;;;;;;;17.02;9.10;;;16.20;69.10;;;;;;4177421;28;20048;-61
2022/01/29 03:38:39;;;;;;;20.33;8.20;;;16.20;69.10;;;;;;4176907;28;20068;-60
2022/01/29 03:41:01;;;;;;;14.90;7.95;;;16.20;69.10;;;;;;4177151;28;20060;-62
2022/01/29 03:43:28;;;;;;;15.38;8.63;;;16.20;69.20;;;;;;4171637;28;20065;-61
2022/01/29 03:45:52;;;;;;;13.75;8.20;;;16.10;69.50;;;;;;4172779;28;20056;-61
2022/01/29 03:48:14;;;;;;;15.38;8.23;;;16.20;69.60;;;;;;4193286;28;20098;-61
2022/01/29 03:50:37;;;;;;;15.82;8.35;;;16.20;69.20;;;;;;4192985;28;20672;-61
2022/01/29 03:52:59;;;;;;;13.93;7.78;;;16.40;68.90;;;;;;4192121;28;20055;-61
2022/01/29 03:55:21;;;;;;;16.13;8.50;;;16.40;68.70;;;;;;4186389;28;20126;-61
2022/01/29 03:57:43;;;;;;;14.35;7.85;;;16.40;68.50;;;;;;4192671;28;20060;-61
2022/01/29 04:00:08;;;;;;;14.68;7.65;;;16.40;68.50;;;;;;4192447;28;20564;-61
2022/01/29 04:02:31;;;;;;;24.13;8.82;;;16.40;68.60;;;;;;4193518;28;20060;-61
2022/01/29 04:04:54;;;;;;;15.27;7.60;;;16.30;68.60;;;;;;4193607;28;20060;-61
2022/01/29 04:07:16;;;;;;;14.52;8.10;;;16.30;68.80;;;;;;4189703;28;20051;-61
2022/01/29 04:09:39;;;;;;;13.48;7.50;;;16.30;69.10;;;;;;4160734;28;20504;-61
2022/01/29 04:12:01;;;;;;;17.50;7.60;;;16.30;69.30;;;;;;4168923;28;20128;-61
2022/01/29 04:14:23;;;;;;;14.07;7.20;;;16.30;69.20;;;;;;4176922;28;20893;-61
2022/01/29 04:16:46;;;;;;;15.77;8.02;;;16.30;69.10;;;;;;4181665;28;20099;-61
2022/01/29 04:19:09;;;;;;;16.38;7.65;;;16.30;69.00;;;;;;4181202;28;20134;-61
2022/01/29 04:21:31;;;;;;;14.88;7.85;;;16.30;69.00;;;;;;4177089;28;20080;-61
2022/01/29 04:23:53;;;;;;;12.88;7.53;;;16.30;69.20;;;;;;4176786;28;20053;-61
2022/01/29 04:26:15;;;;;;;14.30;7.35;;;16.30;69.20;;;;;;4192267;28;20044;-61
2022/01/29 04:28:41;;;;;;;11.80;7.90;;;16.30;69.30;;;;;;4187643;28;20128;-61
2022/01/29 04:31:08;;;;;;;14.23;7.75;;;16.30;69.30;;;;;;4176648;28;20045;-61
2022/01/29 04:33:30;;;;;;;15.98;7.78;;;16.30;69.30;;;;;;4177634;28;20077;-61
2022/01/29 04:35:53;;;;;;;15.35;7.65;;;16.40;69.00;;;;;;4176657;28;20052;-61
2022/01/29 04:38:15;;;;;;;12.30;7.05;;;16.40;68.70;;;;;;4183199;28;20048;-61
2022/01/29 04:40:37;;;;;;;9.30;6.75;;;16.50;68.50;;;;;;4193083;28;20416;-61
2022/01/29 04:42:59;;;;;;;16.40;8.23;;;16.50;68.50;;;;;;4193067;28;20040;-61
2022/01/29 04:45:21;;;;;;;16.58;8.30;;;16.50;68.40;;;;;;4181612;28;20045;-61
2022/01/29 04:47:43;;;;;;;11.35;7.40;;;16.50;68.50;;;;;;4178131;28;20485;-62
2022/01/29 04:50:06;;;;;;;16.90;8.38;;;16.50;68.60;;;;;;4192815;28;20439;-61
2022/01/29 04:52:29;;;;;;;14.25;8.07;;;16.40;68.80;;;;;;4192671;28;20139;-61
2022/01/29 04:54:51;;;;;;;14.13;6.68;;;16.40;68.80;;;;;;4192902;28;20113;-62
2022/01/29 04:57:13;;;;;;;13.60;8.73;;;16.40;68.90;;;;;;4186363;28;20072;-62
2022/01/29 04:59:36;;;;;;;13.52;8.18;;;16.40;69.00;;;;;;4184839;28;20044;-61
2022/01/29 05:01:58;;;;;;;12.43;6.18;;;16.30;69.00;;;;;;4193095;28;20133;-61
2022/01/29 05:04:20;;;;;;;15.90;8.20;;;16.40;69.20;;;;;;4185794;28;20109;-61
2022/01/29 05:06:42;;;;;;;14.98;7.80;;;16.40;69.10;;;;;;4176208;28;20044;-62
2022/01/29 05:09:08;;;;;;;11.50;7.13;;;16.40;68.90;;;;;;4175780;28;20454;-61
2022/01/29 05:11:30;;;;;;;13.77;7.80;;;16.40;68.90;;;;;;4159285;28;20095;-61
2022/01/29 05:13:52;;;;;;;14.00;7.60;;;16.40;68.90;;;;;;4164333;28;20049;-62
2022/01/29 05:26:52;;;;;;;10.32;7.72;;;16.20;69.70;;;;;;4192488;28;20136;-61
2022/01/29 05:29:13;;;;;;;12.02;7.28;;;16.20;69.80;;;;;;4192319;28;20052;-62
2022/01/29 05:31:36;;;;;;;13.80;7.88;;;16.30;69.60;;;;;;4191385;28;20063;-62
2022/01/29 05:33:59;;;;;;;12.70;8.40;;;16.40;69.30;;;;;;4188007;28;20553;-62
2022/01/29 05:36:21;;;;;;;18.20;7.80;;;16.50;69.10;;;;;;4176168;28;20049;-62
2022/01/29 05:38:44;;;;;;;13.70;7.38;;;16.50;68.90;;;;;;4178913;28;20044;-62
2022/01/29 05:41:07;;;;;;;13.20;8.00;;;16.50;68.80;;;;;;4192444;28;20068;-62
2022/01/29 05:43:29;;;;;;;11.65;7.38;;;16.50;68.70;;;;;;4191824;28;20052;-61
2022/01/29 05:45:51;;;;;;;12.43;8.10;;;16.50;68.70;;;;;;4175950;28;20049;-62
2022/01/29 05:48:13;;;;;;;12.23;7.50;;;16.50;68.80;;;;;;4176230;28;20477;-61
2022/01/29 05:50:35;;;;;;;13.73;6.55;;;16.40;68.90;;;;;;4175827;28;20609;-62
2022/01/29 05:52:57;;;;;;;12.02;7.82;;;16.40;70.10;;;;;;4175288;28;20072;-61
2022/01/29 05:55:19;;;;;;;14.38;8.38;;;16.40;69.30;;;;;;4191633;28;20584;-61
2022/01/29 05:57:43;;;;;;;12.85;6.95;;;16.30;69.60;;;;;;4191176;28;20044;-62
2022/01/29 06:00:07;;;;;;;11.90;6.82;;;16.30;69.80;;;;;;4192566;28;20048;-62
2022/01/29 06:02:35;;;;;;;16.10;8.32;;;16.30;69.90;;;;;;4192628;28;20064;-61
2022/01/29 06:04:57;;;;;;;13.55;7.35;;;16.30;70.60;;;;;;4190032;28;20107;-61
2022/01/29 06:07:19;;;;;;;11.98;7.82;;;16.30;69.70;;;;;;4191975;28;20052;-61
2022/01/29 06:09:41;;;;;;;12.23;7.50;;;16.30;69.60;;;;;;4159244;28;20451;-61
2022/01/29 06:12:04;;;;;;;15.07;7.68;;;16.30;70.60;;;;;;4167963;28;20378;-62
2022/01/29 06:14:28;;;;;;;11.65;7.25;;;16.30;69.90;;;;;;4192927;28;20059;-62
2022/01/29 06:16:50;;;;;;;11.93;7.18;;;16.30;70.10;;;;;;4195791;28;20052;-61
2022/01/29 06:19:12;;;;;;;12.35;7.47;;;16.30;70.10;;;;;;4192046;28;20067;-61
2022/01/29 06:21:34;;;;;;;10.93;7.10;;;16.40;69.80;;;;;;4194817;28;20048;-61
2022/01/29 06:23:57;;;;;;;16.65;8.85;;;16.50;69.40;;;;;;4195060;28;20511;-61
2022/01/29 06:26:20;;;;;;;7.97;6.47;;;16.50;69.10;;;;;;4194930;28;20060;-61
2022/01/29 06:28:42;;;;;;;13.60;7.70;;;16.50;69.10;;;;;;4195280;28;20072;-61
2022/01/29 06:31:07;;;;;;;14.98;8.02;;;16.50;69.20;;;;;;4188536;28;20523;-61
2022/01/29 06:33:29;;;;;;;14.80;7.95;;;16.50;69.30;;;;;;4193630;28;20048;-61
2022/01/29 06:35:51;;;;;;;12.63;7.13;;;16.50;69.30;;;;;;4195173;28;20044;-60
2022/01/29 06:38:15;;;;;;;13.38;7.90;;;16.50;69.30;;;;;;4195264;28;20051;-62
2022/01/29 06:40:38;;;;;;;10.23;7.13;;;16.50;69.30;;;;;;4195052;28;20052;-61
2022/01/29 06:43:01;;;;;;;12.27;6.97;;;16.50;69.40;;;;;;4183969;28;20048;-61
2022/01/29 06:45:23;;;;;;;13.18;7.18;;;16.40;69.50;;;;;;4182886;28;20052;-61
2022/01/29 06:47:47;;;;;;;10.60;7.05;;;16.40;69.80;;;;;;4195206;28;20071;-61
2022/01/29 06:50:10;;;;;;;8.75;6.78;;;16.40;69.90;;;;;;4194611;28;20053;-61
2022/01/29 06:52:32;;;;;;;9.65;6.55;;;16.40;69.80;;;;;;4187287;28;20132;-61
2022/01/29 06:54:54;;;;;;;14.02;7.63;;;16.40;69.60;;;;;;4177857;28;20048;-61
2022/01/29 06:57:16;;;;;;;8.35;7.05;;;16.40;69.60;;;;;;4178020;28;20061;-61
2022/01/29 06:59:38;;;;;;;10.63;6.25;;;16.40;69.60;;;;;;4180969;28;20044;-61
2022/01/29 07:02:04;;;;;;;13.18;6.90;;;16.40;69.70;;;;;;4178583;28;20112;-61
2022/01/29 07:04:28;;;;;;;10.15;7.15;;;16.30;69.90;;;;;;4178420;28;20288;-62
2022/01/29 07:06:50;;;;;;;12.23;7.05;;;16.30;70.10;;;;;;4178303;28;20049;-61
2022/01/29 07:09:11;;;;;;;10.55;6.38;;;16.40;70.30;;;;;;4178019;28;20041;-61
2022/01/29 07:11:33;;;;;;;13.35;6.47;;;16.40;70.10;;;;;;4189784;28;20465;-61
2022/01/29 07:14:02;;;;;;;11.20;6.80;;;16.40;70.00;;;;;;4193042;28;20158;-62
2022/01/29 07:16:24;;;;;;;11.27;6.97;;;16.40;70.00;;;;;;4177577;28;20084;-62
2022/01/29 07:18:46;;;;;;;12.05;7.43;;;16.40;70.60;;;;;;4182952;28;20049;-61
2022/01/29 07:21:09;;;;;;;10.38;6.72;;;16.50;71.00;;;;;;4177952;28;20051;-61
2022/01/29 07:23:31;;;;;;;9.05;6.60;;;16.50;71.00;;;;;;4177982;28;20067;-61
2022/01/29 07:25:54;;;;;;;10.00;6.22;;;16.50;70.80;;;;;;4177431;28;20393;-61
2022/01/29 07:28:16;;;;;;;12.23;7.00;;;16.50;70.70;;;;;;4177415;28;20466;-61
2022/01/29 07:30:38;;;;;;;10.63;6.85;;;16.50;70.60;;;;;;4160942;28;20049;-61
2022/01/29 07:33:00;;;;;;;12.52;6.90;;;16.50;70.60;;;;;;4161026;28;20473;-61
2022/01/29 07:35:23;;;;;;;12.52;5.72;;;16.40;70.50;;;;;;4160723;28;20037;-61
2022/01/29 07:37:48;;;;;;;10.10;6.10;;;16.40;70.60;;;;;;4160631;28;20069;-61
2022/01/29 07:40:11;;;;;;;10.93;6.20;;;16.40;70.70;;;;;;4178158;28;20053;-61
2022/01/29 07:42:33;;;;;;;8.55;6.28;;;16.40;70.60;;;;;;4178571;28;20052;-61
2022/01/29 07:44:55;;;;;;;8.10;6.03;;;16.40;70.70;;;;;;4177230;28;20440;-61
2022/01/29 07:47:18;;;;;;;9.93;6.53;;;16.40;70.80;;;;;;4177300;28;20132;-61
2022/01/29 07:49:40;;;;;;;10.52;6.10;;;16.30;70.80;;;;;;4177185;28;20394;-61
2022/01/29 07:52:02;;;;;;;9.20;5.65;;;16.30;71.30;;;;;;4185126;28;20654;-60
2022/01/29 07:54:26;;;;;;;10.27;5.80;;;16.30;71.40;;;;;;4178298;28;20503;-61
2022/01/29 07:56:48;;;;;;;12.70;6.95;;;16.30;72.20;;;;;;4177290;28;20409;-61
2022/01/29 07:59:10;;;;;;;8.65;5.57;;;16.40;71.00;;;;;;4177208;28;20701;-61
2022/01/29 08:01:32;;;;;;;6.93;5.03;;;16.40;70.90;;;;;;4176756;28;20484;-60
2022/01/29 08:03:54;;;;;;;15.32;7.28;;;16.40;70.80;;;;;;4176701;28;20619;-61
2022/01/29 08:06:17;;;;;;;8.60;6.05;;;16.40;70.70;;;;;;4176982;28;20041;-61
2022/01/29 08:08:39;;;;;;;9.65;6.00;;;16.50;70.60;;;;;;4176625;28;20053;-61
2022/01/29 08:11:03;;;;;;;7.05;5.55;;;16.50;70.20;;;;;;4176850;28;20053;-61
2022/01/29 08:13:25;;;;;;;7.30;4.97;;;16.60;70.20;;;;;;4176843;28;20052;-60
2022/01/29 08:15:47;;;;;;;9.32;5.18;;;16.60;70.10;;;;;;4178186;28;20094;-61
2022/01/29 08:18:10;;;;;;;8.40;4.65;;;16.50;70.10;;;;;;4176385;28;20072;-61
2022/01/29 08:20:32;;;;;;;8.40;4.95;;;16.50;70.30;;;;;;4192298;28;20049;-61
2022/01/29 08:22:54;;;;;;;8.98;5.45;;;16.50;70.30;;;;;;4180107;28;20090;-61
2022/01/29 08:25:17;;;;;;;11.13;5.75;;;16.50;70.30;;;;;;4185680;28;20055;-61
2022/01/29 08:27:40;;;;;;;7.72;5.25;;;16.50;70.40;;;;;;4175645;28;20049;-61
2022/01/29 08:30:03;;;;;;;8.90;4.93;;;16.50;70.60;;;;;;4190040;28;20152;-61
2022/01/29 08:32:25;;;;;;;8.23;5.20;;;16.50;70.70;;;;;;4180866;28;20475;-61
2022/01/29 08:34:47;;;;;;;7.10;5.18;;;16.40;70.70;;;;;;4176356;28;20124;-61
2022/01/29 08:37:10;;;;;;;10.82;5.90;;;16.40;70.80;;;;;;4176765;28;20064;-61
2022/01/29 08:39:32;;;;;;;10.68;5.45;;;16.40;70.90;;;;;;4180035;28;20094;-61
2022/01/29 08:41:55;;;;;;;10.77;5.55;;;16.40;71.00;;;;;;4186101;28;20044;-61
2022/01/29 08:44:18;;;;;;;12.82;5.18;;;16.30;71.30;;;;;;4176610;28;20448;-61
2022/01/29 08:46:40;;;;;;;7.55;4.72;;;16.30;71.60;;;;;;4175110;28;20082;-61
2022/01/29 08:49:03;;;;;;;7.72;4.72;;;16.30;71.50;;;;;;4162294;28;20163;-61
2022/01/29 08:51:25;;;;;;;9.93;4.63;;;16.40;71.60;;;;;;4160172;28;20060;-61
2022/01/29 08:53:47;;;;;;;9.60;4.68;;;16.40;72.20;;;;;;4163378;28;20040;-61
2022/01/29 08:56:09;;;;;;;10.48;4.97;;;16.40;72.20;;;;;;4176646;28;20064;-59
2022/01/29 08:58:35;;;;;;;7.03;4.20;;;16.30;71.40;;;;;;4176502;28;20059;-60
2022/01/29 09:00:59;;;;;;;10.10;4.50;;;16.30;71.50;;;;;;4176808;28;20087;-59
2022/01/29 09:03:23;;;;;;;7.07;3.97;;;16.30;71.60;;;;;;4175896;28;20064;-59
2022/01/29 09:05:46;;;;;;;8.13;4.05;;;16.30;71.70;;;;;;4176013;28;20358;-59
2022/01/29 09:08:08;;;;;;;8.02;4.47;;;16.30;71.80;;;;;;4175747;28;20052;-59
2022/01/29 09:10:31;;;;;;;4.82;3.55;;;16.30;71.90;;;;;;4187142;28;20147;-59
2022/01/29 09:12:53;;;;;;;8.63;3.78;;;16.20;72.10;;;;;;4192521;28;20121;-59
2022/01/29 09:15:15;;;;;;;9.07;3.95;;;16.20;72.10;;;;;;4192811;28;20157;-59
2022/01/29 09:17:40;;;;;;;5.68;3.28;;;16.20;72.30;;;;;;4192432;28;20184;-59
2022/01/29 09:20:03;;;;;;;7.13;4.00;;;16.30;72.30;;;;;;4191147;28;20044;-59
2022/01/29 09:22:26;;;;;;;7.32;3.42;;;16.30;71.90;;;;;;4188442;28;20111;-59
2022/01/29 09:24:48;;;;;;;6.25;3.35;;;16.40;71.60;;;;;;4188213;28;20053;-59
2022/01/29 09:27:10;;;;;;;5.85;3.80;;;16.40;71.70;;;;;;4191374;28;20051;-59
2022/01/29 09:29:32;;;;;;;5.25;3.50;;;16.40;71.60;;;;;;4190858;28;20426;-59
2022/01/29 09:31:54;;;;;;;8.45;3.40;;;16.40;71.60;;;;;;4192238;28;20040;-58
2022/01/29 09:34:17;;;;;;;3.65;2.85;;;16.40;71.70;;;;;;4192684;28;20044;-58
2022/01/29 09:36:40;;;;;;;4.53;2.58;;;16.40;71.60;;;;;;4170659;28;20412;-59
2022/01/29 09:39:01;;;;;;;5.57;2.92;;;16.40;72.20;;;;;;4178051;28;20060;-59
2022/01/29 09:41:27;;;;;;;4.53;2.20;;;16.40;71.20;;;;;;4174780;28;20051;-59
2022/01/29 09:43:50;;;;;;;4.43;2.50;;;16.50;71.10;;;;;;4190685;28;20052;-59
2022/01/29 09:46:12;;;;;;;5.53;2.28;;;16.50;71.10;;;;;;4191846;28;20041;-59
2022/01/29 09:48:35;;;;;;;6.05;2.67;;;16.40;71.10;;;;;;4192305;28;20048;-59
2022/01/29 09:50:59;;;;;;;5.90;2.85;;;16.40;71.20;;;;;;4195540;28;20063;-59
2022/01/29 09:53:21;;;;;;;5.55;2.42;;;16.40;71.50;;;;;;4184366;28;20045;-58
2022/01/29 09:55:44;;;;;;;6.05;2.67;;;16.40;71.60;;;;;;4179124;28;20075;-59
2022/01/29 09:58:05;;;;;;;6.30;2.50;;;16.40;71.50;;;;;;4179276;28;20511;-59
2022/01/29 10:00:28;;;;;;;5.20;2.42;;;16.50;71.20;;;;;;4177783;28;20074;-60
2022/01/29 10:03:15;;;;;;;4.70;2.28;;;16.50;71.10;;;;;;4178676;28;20118;-59
2022/01/29 10:05:40;;;;;;;14.70;2.60;;;16.50;71.10;;;;;;4181697;28;20071;-60
2022/01/29 10:08:04;;;;;;;3.83;2.17;;;16.50;71.30;;;;;;4178905;28;20048;-59
2022/01/29 10:10:25;;;;;;;4.50;2.40;;;16.70;71.10;;;;;;4178900;28;20040;-60
2022/01/29 10:12:48;;;;;;;3.58;2.28;;;16.90;70.10;;;;;;4179057;28;20048;-59
2022/01/29 10:15:10;;;;;;;4.40;1.98;;;17.20;68.60;;;;;;4179885;28;20102;-60
2022/01/29 10:17:48;;;;;;;6.22;2.13;;;17.70;67.10;;;;;;4178597;28;20044;-60
2022/01/29 10:20:14;;;;;;;3.70;1.88;;;18.10;65.30;;;;;;4178841;28;20045;-60
2022/01/29 10:22:36;;;;;;;2.30;2.05;;;18.40;63.80;;;;;;4179252;28;20067;-60
2022/01/29 10:24:59;;;;;;;6.55;2.33;;;18.70;62.80;;;;;;4179015;28;20053;-59
2022/01/29 10:27:21;;;;;;;5.05;1.60;;;18.90;62.20;;;;;;4162600;28;20085;-59
2022/01/29 10:30:03;;;;;;;;;;;19.00;61.70;;;;;;4161768;28;20053;-58
2022/01/29 10:32:26;;;;;;;5.82;2.20;;;19.10;61.60;;;;;;4186697;28;20548;-59
2022/01/29 10:34:55;;;;;;;5.72;1.70;;;19.10;61.30;;;;;;4194475;28;20140;-59
2022/01/29 10:37:18;;;;;;;6.80;1.70;;;19.20;61.20;;;;;;4195078;28;20052;-59
2022/01/29 10:39:41;;;;;;;4.63;1.63;;;19.20;61.20;;;;;;4193499;28;20131;-60
2022/01/29 10:42:16;;;;;;;6.53;2.08;;;19.20;61.20;;;;;;4162115;28;20053;-60
2022/01/29 10:44:43;;;;;;;7.10;1.80;;;19.20;61.30;;;;;;4161796;28;20085;-59
2022/01/29 10:47:06;;;;;;;11.02;2.08;;;19.10;61.60;;;;;;4161955;28;20050;-59
2022/01/29 10:49:30;;;;;;;4.65;2.38;;;19.00;61.90;;;;;;4178621;28;20505;-59
2022/01/29 10:51:58;;;;;;;7.20;2.20;;;18.80;62.40;;;;;;4162143;28;20052;-59
2022/01/29 10:54:21;;;;;;;6.40;1.75;;;18.80;63.00;;;;;;4161723;28;20505;-59
2022/01/29 10:56:51;;;;;;;2.83;0.95;;;18.60;63.40;;;;;;4187960;28;20045;-59
2022/01/29 10:59:16;;;;;;;5.25;1.60;;;18.50;64.00;;;;;;4182798;28;20053;-59
2022/01/29 11:01:38;;;;;;;5.63;1.50;;;18.40;65.50;;;;;;4175274;28;20045;-59
2022/01/29 11:04:01;;;;;;;4.75;1.90;;;18.30;65.00;;;;;;4178153;28;20483;-59
2022/01/29 11:06:32;;;;;;;5.20;1.83;;;18.20;65.20;;;;;;4182102;28;20048;-59
2022/01/29 11:08:55;;;;;;;5.95;1.58;;;18.20;65.20;;;;;;4192794;28;20433;-60
2022/01/29 11:11:17;;;;;;;4.30;1.45;;;18.20;65.20;;;;;;4194678;28;20037;-59
2022/01/29 11:13:59;;;;;;;7.82;2.30;;;18.30;65.20;;;;;;4194562;28;20057;-60
2022/01/29 11:16:23;;;;;;;9.63;1.77;;;18.30;65.30;;;;;;4192128;28;20049;-60
2022/01/29 11:18:46;;;;;;;3.30;1.17;;;18.40;65.00;;;;;;4188441;28;20503;-59
2022/01/29 11:21:08;;;;;;;5.68;1.73;;;18.50;64.60;;;;;;4182844;28;20080;-59
2022/01/29 11:23:31;;;;;;;3.95;1.50;;;18.50;65.20;;;;;;4185434;28;20469;-59
2022/01/29 11:25:55;;;;;;;4.22;1.17;;;18.50;64.30;;;;;;4176206;28;20409;-60
2022/01/29 11:28:19;;;;;;;2.05;1.17;;;18.50;64.40;;;;;;4180203;28;20504;-59
2022/01/29 11:30:44;;;;;;;3.15;1.50;;;18.40;64.50;;;;;;4177668;28;20616;-59
2022/01/29 11:33:07;;;;;;;7.53;1.58;;;18.40;64.90;;;;;;4179051;28;20127;-59
2022/01/29 11:35:29;;;;;;;5.05;1.45;;;18.30;65.30;;;;;;4167447;28;20497;-59
2022/01/29 11:37:58;;;;;;;5.10;1.50;;;18.20;65.60;;;;;;4188299;28;20040;-60
2022/01/29 11:40:23;;;;;;;5.22;1.33;;;18.20;66.70;;;;;;4193533;28;20114;-60
2022/01/29 11:42:54;;;;;;;3.58;1.52;;;18.20;65.90;;;;;;4193642;28;20051;-58
2022/01/29 11:45:50;;;;;;;3.42;1.35;;;18.20;65.90;;;;;;4193833;28;20129;-60
2022/01/29 11:48:56;;;;;;;4.47;1.23;;;18.10;65.90;;;;;;4140701;28;20136;-59
2022/01/29 11:51:41;;;;;;;4.85;2.55;;;18.10;66.30;;;;;;4193333;28;20068;-59
2022/01/29 11:54:03;;;;;;;4.70;1.27;;;18.10;66.30;;;;;;4193429;28;20374;-60
2022/01/29 11:56:30;;;;;;;6.18;1.67;;;18.10;66.30;;;;;;4192635;28;20044;-59
2022/01/29 11:59:24;;;;;;;6.38;1.60;;;18.10;66.10;;;;;;4186478;28;20052;-61
2022/01/29 12:01:47;;;;;;;7.93;1.42;;;18.10;66.20;;;;;;4173190;28;20144;-59
2022/01/29 12:04:09;;;;;;;4.68;1.27;;;18.10;66.20;;;;;;4176827;28;20049;-60
2022/01/29 12:06:35;;;;;;;6.47;1.58;;;18.10;66.10;;;;;;4179246;28;20056;-59
2022/01/29 12:09:33;;;;;;;5.38;1.45;;;18.10;66.30;;;;;;4193510;28;20529;-59
2022/01/29 12:12:22;;;;;;;2.53;0.98;;;18.10;66.20;;;;;;4190933;28;20472;-59
2022/01/29 12:14:46;;;;;;;4.30;1.10;;;18.00;66.40;;;;;;4180224;28;20099;-59
2022/01/29 12:17:09;;;;;;;6.00;1.50;;;18.00;66.80;;;;;;4176393;28;20068;-59
2022/01/29 12:19:40;;;;;;;4.20;1.30;;;17.90;66.70;;;;;;4176664;28;20095;-59
2022/01/29 12:22:09;;;;;;;5.13;1.23;;;17.90;66.80;;;;;;4168862;28;20056;-60
2022/01/29 12:24:31;;;;;;;4.00;1.30;;;17.90;67.00;;;;;;4176499;28;20079;-60
2022/01/29 12:26:57;;;;;;;5.68;1.40;;;17.80;67.20;;;;;;4173848;28;20082;-61
2022/01/29 12:29:19;;;;;;;6.45;1.15;;;17.80;67.40;;;;;;4180940;28;20397;-59
2022/01/29 12:31:49;;;;;;;5.40;1.42;;;17.70;67.50;;;;;;4176580;28;20103;-60
2022/01/29 12:34:13;;;;;;;6.22;1.30;;;17.60;67.90;;;;;;4176356;28;20057;-59